Masset current weather conditions

sailwx.info

Wind from 270 at 6 knots

Air temperature 2.0° C
Visibility: greater than 13.0 NM
Dewpoint 1.0° C

Last reported at 2018-Feb-24 02:00 UTC.
Time now 2018-Feb-24 15:56 UTC

Location: N 54°02' W 132°08'.
View on Google Maps.

See reports from other nearby stations

  
Tides and Currents Weather Stations Pressure Air Temp Water Temp Dewpoint Dewpoint Depression Visibility Wind Speed Wind Dir Waves Ship Positions
date/time (UTC)wind fromknots sea level pressurealtimeterstation pressurevisibilityair tempwater tempwave heightnotes
2018-Feb-24 15:00 250 2 8.7 2.0 Light rain showers.
2018-Feb-24 02:00 270 6 13.0 2.0
2018-Feb-24 01:00 250 6 13.0 2.0
2018-Feb-24 00:46 280 6 gusting 15 13.0 2.0
2018-Feb-24 00:39 290 9 gusting 15 4.3 2.0 Light rain showers. Ice pellets.
2018-Feb-24 00:35 290 9 gusting 20 13.0 2.0
2018-Feb-24 00:22 300 13 gusting 19 5.2 2.0 Light snow showers.
2018-Feb-24 00:00 290 9 gusting 22 13.0 2.0 Light rain showers.
2018-Feb-23 23:55 280 11 gusting 18 13.0 3.0 Light snow showers.
2018-Feb-23 23:44 280 9 gusting 15 13.0 3.0 Light rain showers.
2018-Feb-23 23:27 300 13 gusting 21 13.0 2.0 Light rain showers.
2018-Feb-23 23:19 300 14 gusting 25 8.7 3.0 Light snow showers.
2018-Feb-23 23:13 290 8 gusting 14 1.7 4.0 Light rain showers. Small hail/snow pellets.
2018-Feb-23 23:00 300 6 gusting 15 13.0 4.0 Showers in the vicinity.
2018-Feb-23 22:48 310 13 gusting 21 13.0 3.0 Light rain showers.
2018-Feb-23 22:44 300 8 gusting 14 13.0 3.0 Light rain showers.
2018-Feb-23 22:27 280 6 13.0 2.0 Light rain showers.
2018-Feb-23 22:22 290 7 10.4 3.0 Light small hail/snow pellets.
2018-Feb-23 22:13 260 6 gusting 17 13.0 2.0 Light snow showers.
2018-Feb-23 22:08 290 9 gusting 17 13.0 2.0 Light rain showers.
2018-Feb-23 22:00 280 7 13.0 3.0
2018-Feb-23 21:45 300 7 gusting 19 13.0 2.0 Light rain showers.
2018-Feb-23 21:37 300 13 gusting 25 8.7 2.0 Light snow showers.
2018-Feb-23 21:29 300 13 gusting 25 1.7 2.0 Light snow showers.
2018-Feb-23 21:25 280 11 gusting 18 1.7 3.0 Light rain showers. Ice pellets.
2018-Feb-23 21:14 270 11 13.0 3.0 Light rain showers.
2018-Feb-23 21:00 300 8 gusting 15 13.0 4.0 Light rain showers.
2018-Feb-23 20:40 290 9 gusting 25 12.2 3.0 Light rain showers.
2018-Feb-23 20:38 300 13 gusting 25 1.7 3.0 Light snow showers.
2018-Feb-23 20:27 270 9 10.4 5.0 Light rain showers. Ice pellets.
2018-Feb-23 20:00 300 13 gusting 20 13.0 5.0 Light rain showers.
2018-Feb-23 19:00 260 6 gusting 18 13.0 5.0 Light rain showers.
2018-Feb-23 18:51 260 7 gusting 14 13.0 5.0 Light rain showers.
2018-Feb-23 18:45 250 6 gusting 15 13.0 5.0
2018-Feb-23 18:00 270 6 gusting 15 13.0 5.0
2018-Feb-23 17:46 270 6 gusting 18 13.0 5.0 Light rain showers.
2018-Feb-23 17:00 190 2 13.0 3.0
2018-Feb-23 16:56 230 6 13.0 3.0
2018-Feb-23 16:39 230 5 13.0 3.0 Light rain.
2018-Feb-23 16:27 250 5 10.4 3.0 Light rain.
2018-Feb-23 16:23 230 2 1.7 3.0 Light rain. Mist.
2018-Feb-23 16:00 220 4 13.0 3.0 Light rain.
2018-Feb-23 15:49 240 4 13.0 3.0 Light rain.
2018-Feb-23 15:24 240 6 13.0 3.0
2018-Feb-23 15:00 190 5 13.0 2.0
2018-Feb-23 02:00 160 7 13.0 5.0
2018-Feb-23 01:00 160 6 13.0 5.0
2018-Feb-23 00:16 180 6 13.0 5.0
2018-Feb-23 00:00 180 6 13.0 5.0 Light drizzle.
2018-Feb-22 23:51 180 5 13.0 5.0
2018-Feb-22 23:43 190 6 13.0 5.0 Light rain.
2018-Feb-22 23:30 190 6 13.0 5.0 Light drizzle.
2018-Feb-22 23:00 180 5 13.0 6.0
2018-Feb-22 22:00 190 5 13.0 5.0
2018-Feb-22 21:50 180 5 13.0 5.0
2018-Feb-22 21:00 200 4 13.0 5.0 Light rain.
2018-Feb-22 20:15 200 4 13.0 5.0 Light rain.
2018-Feb-22 20:00 190 4 13.0 5.0
2018-Feb-22 19:00 200 2 13.0 4.0
2018-Feb-22 18:00 190 4 13.0 4.0
2018-Feb-22 17:35 180 4 13.0 3.0
2018-Feb-22 17:00 210 4 13.0 3.0 Light drizzle.
2018-Feb-22 16:25 220 4 13.0 3.0 Light rain.
2018-Feb-22 16:00 200 2 13.0 2.0
2018-Feb-22 15:00 210 2 13.0 3.0